12:27
Airports
History
Links
Donate
Help keep this website running!
PayPal
Bitcoin
Information on this page is community maintained and may be outdated or inaccurate and is intended for reference only or PC simulator navigating.
Always use approved charts for navigating.
0NY4
Alan Dipaolo Field
Alan Dipaolo Field (0NY4)
Alden, New York, United States (14004)
4
Lat/Lng:42° 57' 27.21" N / 78° 33' 5.09" W
42.957559 / -78.551414
Elevation:750'ft 229mMSL
ID / ICAO:0NY4
Runways:1
Longest:(01-19) 547.2m 1,795ft Grass
Distance To
Airport ID:
Nearby VORs <50NM
Nearby NDBs
Nearby WeatherUpdated 05-28-17 11:54 GMT
Nearby weather at KBUF, Buffalo Niagara Intl located 9.1 nautical miles from 0NY4
Altimeter: 29.84
Visibility: 10.0 statute miles
Wind: 4 knots (080°)
Temp: 14°c 57°f
Humidity: 82.1%

METAR: KBUF 281154Z 08004KT 10SM FEW060 OVC280 14/11 A2984 RMK AO2 SLP104 T01390111 10139 20106 58013

(Powered by phpweather)
Runway 01 / 19
Dimensions:547.2 x 22.9m 1795' x 75'ft
Surface:Grass
Runway 01 [A]Runway 19 [B]
Heading:000°TH 180°TH
Lat:
Lng:
42° 57' 18.32"N
78° 33' 5.09"W
42° 57' 36.1"N
78° 33' 5.09"W
User Notes and Comments
Google Map
Nearby Airports
(U) Buffalo-lancaster Rgnl 3.9 NM
KBQR SW 231°
(U) Akron 5.6 NM
9G3 NE 38°
(R) Merkle 7.9 NM
NK87 NNW 342°
4 Potoczak 9.1 NM
D46 NW 322°
(C) Buffalo Niagara Intl 9.1 NM
KBUF (WX) W 262°
4 Clarence Aerodrome 10.1 NM
D51 NW 318°
(U) Buffalo Airfield 10.7 NM
9G0 SW 231°
VFR Chart
Flight Planning at SkyVector.com